Hobart Mills, California
Current Conditions -  °F | °C
As of 6:45 AM on Monday 22 Dec 2014 (Local Time) from KTRK Reporting Station
Moderate Fog Moderate Fog  
Wind Chill: 27°   Ceiling: 200
Heat Index: 27°   Visibility: 0.25mi
Dew Point: 27°   Wind: 0mph
Humidity: 100%   Direction: NA
Pressure: 30.33"   Gusts: NA
Location:  39.3569°N, 120.175°W
Report Text: KTRK 221445Z 00000KT 1/4SM FZFG VV002 M03/M03 A3033 RMK NOSPECI FIRST 24HR MAX 0100 MIN 1022
Loading
Personal Weather Stations






























Interactive Weather Map New forecast layout! Learn more

10-Day Weather Forecast

Advertisements
Track Severe Weather on mobile